sensor_id;sensor_type;location;lat;lon;timestamp;P1;durP1;ratioP1;P2;durP2;ratioP2
12770;SDS011;6449;47.666;9.160;2022-09-01T00:01:32;8.15;;;6.88;;
12770;SDS011;6449;47.666;9.160;2022-09-01T00:06:30;7.65;;;6.85;;
12770;SDS011;6449;47.666;9.160;2022-09-01T00:11:25;9.07;;;6.95;;
12770;SDS011;6449;47.666;9.160;2022-09-01T00:16:20;8.23;;;7.40;;
12770;SDS011;6449;47.666;9.160;2022-09-01T00:21:17;9.10;;;6.88;;
12770;SDS011;6449;47.666;9.160;2022-09-01T00:26:18;7.32;;;6.60;;
12770;SDS011;6449;47.666;9.160;2022-09-01T00:31:11;7.65;;;6.95;;
12770;SDS011;6449;47.666;9.160;2022-09-01T00:36:06;8.88;;;7.40;;
12770;SDS011;6449;47.666;9.160;2022-09-01T00:41:02;8.23;;;7.43;;
12770;SDS011;6449;47.666;9.160;2022-09-01T00:45:57;11.10;;;7.65;;
12770;SDS011;6449;47.666;9.160;2022-09-01T00:50:51;8.85;;;7.25;;
12770;SDS011;6449;47.666;9.160;2022-09-01T00:55:45;8.35;;;7.45;;
12770;SDS011;6449;47.666;9.160;2022-09-01T01:00:39;8.27;;;7.22;;
12770;SDS011;6449;47.666;9.160;2022-09-01T01:05:35;10.20;;;7.60;;
12770;SDS011;6449;47.666;9.160;2022-09-01T01:10:32;8.10;;;7.32;;
12770;SDS011;6449;47.666;9.160;2022-09-01T01:15:30;8.75;;;7.78;;
12770;SDS011;6449;47.666;9.160;2022-09-01T01:20:25;10.50;;;9.40;;
12770;SDS011;6449;47.666;9.160;2022-09-01T01:25:43;17.38;;;11.45;;
12770;SDS011;6449;47.666;9.160;2022-09-01T01:30:42;15.77;;;13.02;;
12770;SDS011;6449;47.666;9.160;2022-09-01T01:35:41;15.70;;;13.98;;
12770;SDS011;6449;47.666;9.160;2022-09-01T01:40:35;15.90;;;14.13;;
12770;SDS011;6449;47.666;9.160;2022-09-01T01:45:31;18.65;;;15.13;;
12770;SDS011;6449;47.666;9.160;2022-09-01T01:50:26;21.35;;;15.20;;
12770;SDS011;6449;47.666;9.160;2022-09-01T01:55:26;18.10;;;14.35;;
12770;SDS011;6449;47.666;9.160;2022-09-01T02:00:22;20.08;;;15.48;;
12770;SDS011;6449;47.666;9.160;2022-09-01T02:05:23;17.35;;;14.48;;
12770;SDS011;6449;47.666;9.160;2022-09-01T02:10:19;22.58;;;18.38;;
12770;SDS011;6449;47.666;9.160;2022-09-01T02:15:13;21.00;;;16.83;;
12770;SDS011;6449;47.666;9.160;2022-09-01T02:20:06;23.20;;;17.83;;
12770;SDS011;6449;47.666;9.160;2022-09-01T02:25:02;21.63;;;17.55;;
12770;SDS011;6449;47.666;9.160;2022-09-01T02:29:56;20.77;;;16.08;;
12770;SDS011;6449;47.666;9.160;2022-09-01T02:34:50;20.10;;;15.13;;
12770;SDS011;6449;47.666;9.160;2022-09-01T02:39:51;17.92;;;15.73;;
12770;SDS011;6449;47.666;9.160;2022-09-01T02:44:49;18.25;;;14.75;;
12770;SDS011;6449;47.666;9.160;2022-09-01T02:49:42;17.50;;;14.23;;
12770;SDS011;6449;47.666;9.160;2022-09-01T02:54:37;16.98;;;13.80;;
12770;SDS011;6449;47.666;9.160;2022-09-01T02:59:30;16.23;;;13.40;;
12770;SDS011;6449;47.666;9.160;2022-09-01T03:04:30;16.15;;;13.18;;
12770;SDS011;6449;47.666;9.160;2022-09-01T03:09:25;15.48;;;12.82;;
12770;SDS011;6449;47.666;9.160;2022-09-01T03:14:19;16.23;;;13.38;;
12770;SDS011;6449;47.666;9.160;2022-09-01T03:19:14;14.05;;;12.48;;
12770;SDS011;6449;47.666;9.160;2022-09-01T03:24:11;13.50;;;11.32;;
12770;SDS011;6449;47.666;9.160;2022-09-01T03:29:08;13.07;;;11.43;;
12770;SDS011;6449;47.666;9.160;2022-09-01T03:34:02;14.80;;;12.60;;
12770;SDS011;6449;47.666;9.160;2022-09-01T03:38:56;14.65;;;12.82;;
12770;SDS011;6449;47.666;9.160;2022-09-01T03:43:51;14.97;;;13.00;;
12770;SDS011;6449;47.666;9.160;2022-09-01T03:48:49;14.38;;;12.68;;
12770;SDS011;6449;47.666;9.160;2022-09-01T03:53:47;17.70;;;13.93;;
12770;SDS011;6449;47.666;9.160;2022-09-01T03:58:44;16.60;;;14.30;;
12770;SDS011;6449;47.666;9.160;2022-09-01T04:03:39;17.65;;;14.30;;
12770;SDS011;6449;47.666;9.160;2022-09-01T04:08:35;14.13;;;12.63;;
12770;SDS011;6449;47.666;9.160;2022-09-01T04:13:30;17.10;;;13.38;;
12770;SDS011;6449;47.666;9.160;2022-09-01T04:18:28;15.57;;;13.38;;
12770;SDS011;6449;47.666;9.160;2022-09-01T04:23:24;14.25;;;11.55;;
12770;SDS011;6449;47.666;9.160;2022-09-01T04:28:20;12.70;;;10.05;;
12770;SDS011;6449;47.666;9.160;2022-09-01T04:33:16;11.93;;;10.45;;
12770;SDS011;6449;47.666;9.160;2022-09-01T04:38:09;11.80;;;9.10;;
12770;SDS011;6449;47.666;9.160;2022-09-01T04:43:07;8.88;;;7.97;;
12770;SDS011;6449;47.666;9.160;2022-09-01T04:48:01;8.68;;;7.68;;
12770;SDS011;6449;47.666;9.160;2022-09-01T04:52:56;11.27;;;7.30;;
12770;SDS011;6449;47.666;9.160;2022-09-01T04:57:51;9.75;;;7.68;;
12770;SDS011;6449;47.666;9.160;2022-09-01T05:02:46;8.70;;;7.50;;
12770;SDS011;6449;47.666;9.160;2022-09-01T05:07:43;8.07;;;6.65;;
12770;SDS011;6449;47.666;9.160;2022-09-01T05:12:37;7.80;;;6.65;;
12770;SDS011;6449;47.666;9.160;2022-09-01T05:17:31;8.10;;;7.28;;
12770;SDS011;6449;47.666;9.160;2022-09-01T05:22:26;8.57;;;7.15;;
12770;SDS011;6449;47.666;9.160;2022-09-01T05:27:21;7.13;;;6.40;;
12770;SDS011;6449;47.666;9.160;2022-09-01T05:32:16;7.28;;;6.55;;
12770;SDS011;6449;47.666;9.160;2022-09-01T05:37:10;8.25;;;6.80;;
12770;SDS011;6449;47.666;9.160;2022-09-01T05:42:07;8.35;;;6.30;;
12770;SDS011;6449;47.666;9.160;2022-09-01T05:47:01;9.02;;;6.63;;
12770;SDS011;6449;47.666;9.160;2022-09-01T05:51:55;6.57;;;5.82;;
12770;SDS011;6449;47.666;9.160;2022-09-01T05:56:49;7.78;;;6.82;;
12770;SDS011;6449;47.666;9.160;2022-09-01T06:01:45;8.63;;;7.72;;
12770;SDS011;6449;47.666;9.160;2022-09-01T06:06:42;9.57;;;8.32;;
12770;SDS011;6449;47.666;9.160;2022-09-01T06:11:57;9.05;;;8.07;;
12770;SDS011;6449;47.666;9.160;2022-09-01T06:16:54;7.90;;;7.05;;
12770;SDS011;6449;47.666;9.160;2022-09-01T06:21:48;9.68;;;6.82;;
12770;SDS011;6449;47.666;9.160;2022-09-01T06:26:41;8.27;;;7.47;;
12770;SDS011;6449;47.666;9.160;2022-09-01T06:31:36;8.48;;;7.65;;
12770;SDS011;6449;47.666;9.160;2022-09-01T06:36:32;8.60;;;7.20;;
12770;SDS011;6449;47.666;9.160;2022-09-01T06:41:30;8.00;;;6.97;;
12770;SDS011;6449;47.666;9.160;2022-09-01T06:46:23;7.63;;;6.82;;
12770;SDS011;6449;47.666;9.160;2022-09-01T06:51:19;7.20;;;6.50;;
12770;SDS011;6449;47.666;9.160;2022-09-01T06:56:16;7.13;;;6.43;;
12770;SDS011;6449;47.666;9.160;2022-09-01T07:01:13;8.10;;;6.30;;
12770;SDS011;6449;47.666;9.160;2022-09-01T07:06:13;6.63;;;5.97;;
12770;SDS011;6449;47.666;9.160;2022-09-01T07:11:31;7.43;;;5.72;;
12770;SDS011;6449;47.666;9.160;2022-09-01T07:16:49;7.40;;;6.13;;
12770;SDS011;6449;47.666;9.160;2022-09-01T07:22:03;6.43;;;5.63;;
12770;SDS011;6449;47.666;9.160;2022-09-01T07:26:58;6.53;;;5.30;;
12770;SDS011;6449;47.666;9.160;2022-09-01T07:31:59;9.13;;;5.70;;
12770;SDS011;6449;47.666;9.160;2022-09-01T07:37:13;7.18;;;5.72;;
12770;SDS011;6449;47.666;9.160;2022-09-01T07:42:29;6.63;;;5.88;;
12770;SDS011;6449;47.666;9.160;2022-09-01T07:47:42;6.35;;;5.70;;
12770;SDS011;6449;47.666;9.160;2022-09-01T07:52:44;6.38;;;5.78;;
12770;SDS011;6449;47.666;9.160;2022-09-01T07:57:41;5.97;;;5.38;;
12770;SDS011;6449;47.666;9.160;2022-09-01T08:02:36;5.97;;;4.97;;
12770;SDS011;6449;47.666;9.160;2022-09-01T08:07:29;5.18;;;4.32;;
12770;SDS011;6449;47.666;9.160;2022-09-01T08:12:43;5.65;;;4.70;;
12770;SDS011;6449;47.666;9.160;2022-09-01T08:17:46;4.32;;;3.92;;
12770;SDS011;6449;47.666;9.160;2022-09-01T08:22:42;4.47;;;4.07;;
12770;SDS011;6449;47.666;9.160;2022-09-01T08:27:35;7.13;;;4.35;;
12770;SDS011;6449;47.666;9.160;2022-09-01T08:32:31;3.70;;;3.40;;
12770;SDS011;6449;47.666;9.160;2022-09-01T08:37:25;4.43;;;4.03;;
12770;SDS011;6449;47.666;9.160;2022-09-01T08:42:21;4.22;;;3.50;;
12770;SDS011;6449;47.666;9.160;2022-09-01T08:47:37;4.40;;;4.00;;
12770;SDS011;6449;47.666;9.160;2022-09-01T08:52:51;6.65;;;3.72;;
12770;SDS011;6449;47.666;9.160;2022-09-01T08:58:00;4.05;;;3.70;;
12770;SDS011;6449;47.666;9.160;2022-09-01T09:02:59;3.95;;;3.65;;
12770;SDS011;6449;47.666;9.160;2022-09-01T09:08:09;4.00;;;3.67;;
12770;SDS011;6449;47.666;9.160;2022-09-01T09:13:32;4.47;;;3.85;;
12770;SDS011;6449;47.666;9.160;2022-09-01T09:18:44;4.40;;;4.00;;
12770;SDS011;6449;47.666;9.160;2022-09-01T09:23:47;4.00;;;3.60;;
12770;SDS011;6449;47.666;9.160;2022-09-01T09:28:49;3.67;;;3.30;;
12770;SDS011;6449;47.666;9.160;2022-09-01T09:33:46;3.95;;;3.58;;
12770;SDS011;6449;47.666;9.160;2022-09-01T09:38:45;3.50;;;3.20;;
12770;SDS011;6449;47.666;9.160;2022-09-01T09:43:41;3.67;;;3.38;;
12770;SDS011;6449;47.666;9.160;2022-09-01T09:48:39;3.28;;;3.03;;
12770;SDS011;6449;47.666;9.160;2022-09-01T09:53:34;3.45;;;3.15;;
12770;SDS011;6449;47.666;9.160;2022-09-01T09:58:30;3.58;;;3.28;;
12770;SDS011;6449;47.666;9.160;2022-09-01T10:03:33;3.60;;;3.30;;
12770;SDS011;6449;47.666;9.160;2022-09-01T10:08:38;4.20;;;3.80;;
12770;SDS011;6449;47.666;9.160;2022-09-01T10:13:38;4.15;;;3.80;;
12770;SDS011;6449;47.666;9.160;2022-09-01T10:18:34;3.60;;;3.30;;
12770;SDS011;6449;47.666;9.160;2022-09-01T10:23:35;3.95;;;3.40;;
12770;SDS011;6449;47.666;9.160;2022-09-01T10:28:32;4.43;;;4.03;;
12770;SDS011;6449;47.666;9.160;2022-09-01T10:33:41;3.95;;;3.42;;
12770;SDS011;6449;47.666;9.160;2022-09-01T10:38:35;3.70;;;3.40;;
12770;SDS011;6449;47.666;9.160;2022-09-01T10:43:35;3.72;;;3.42;;
12770;SDS011;6449;47.666;9.160;2022-09-01T10:48:33;3.45;;;3.15;;
12770;SDS011;6449;47.666;9.160;2022-09-01T10:53:46;3.60;;;3.30;;
12770;SDS011;6449;47.666;9.160;2022-09-01T10:58:44;3.60;;;3.30;;
12770;SDS011;6449;47.666;9.160;2022-09-01T11:04:15;3.40;;;3.10;;
12770;SDS011;6449;47.666;9.160;2022-09-01T11:09:17;4.03;;;3.63;;
12770;SDS011;6449;47.666;9.160;2022-09-01T11:14:17;3.55;;;3.25;;
12770;SDS011;6449;47.666;9.160;2022-09-01T11:24:45;3.25;;;3.00;;
12770;SDS011;6449;47.666;9.160;2022-09-01T11:29:54;3.75;;;3.45;;
12770;SDS011;6449;47.666;9.160;2022-09-01T11:34:51;3.42;;;3.13;;
12770;SDS011;6449;47.666;9.160;2022-09-01T11:39:50;4.15;;;3.33;;
12770;SDS011;6449;47.666;9.160;2022-09-01T11:44:51;3.20;;;3.00;;
12770;SDS011;6449;47.666;9.160;2022-09-01T11:49:54;2.90;;;2.70;;
12770;SDS011;6449;47.666;9.160;2022-09-01T11:54:52;3.20;;;2.90;;
12770;SDS011;6449;47.666;9.160;2022-09-01T11:59:46;3.40;;;3.10;;
12770;SDS011;6449;47.666;9.160;2022-09-01T12:04:40;3.58;;;3.28;;
12770;SDS011;6449;47.666;9.160;2022-09-01T12:09:34;3.03;;;2.83;;
12770;SDS011;6449;47.666;9.160;2022-09-01T12:14:33;3.05;;;2.85;;
12770;SDS011;6449;47.666;9.160;2022-09-01T12:19:48;3.42;;;3.13;;
12770;SDS011;6449;47.666;9.160;2022-09-01T12:24:43;2.90;;;2.70;;
12770;SDS011;6449;47.666;9.160;2022-09-01T12:29:40;2.75;;;2.55;;
12770;SDS011;6449;47.666;9.160;2022-09-01T12:34:36;3.35;;;3.05;;
12770;SDS011;6449;47.666;9.160;2022-09-01T12:39:35;3.10;;;2.65;;
12770;SDS011;6449;47.666;9.160;2022-09-01T12:44:30;2.60;;;2.40;;
12770;SDS011;6449;47.666;9.160;2022-09-01T12:49:35;3.13;;;2.83;;
12770;SDS011;6449;47.666;9.160;2022-09-01T12:54:42;2.97;;;2.55;;
12770;SDS011;6449;47.666;9.160;2022-09-01T12:59:36;2.90;;;2.70;;
12770;SDS011;6449;47.666;9.160;2022-09-01T13:04:29;3.00;;;2.80;;
12770;SDS011;6449;47.666;9.160;2022-09-01T13:09:24;2.60;;;2.40;;
12770;SDS011;6449;47.666;9.160;2022-09-01T13:14:18;2.85;;;2.63;;
12770;SDS011;6449;47.666;9.160;2022-09-01T13:19:12;3.00;;;2.80;;
12770;SDS011;6449;47.666;9.160;2022-09-01T13:24:18;2.72;;;2.53;;
12770;SDS011;6449;47.666;9.160;2022-09-01T13:29:20;3.42;;;2.90;;
12770;SDS011;6449;47.666;9.160;2022-09-01T13:34:13;2.72;;;2.53;;
12770;SDS011;6449;47.666;9.160;2022-09-01T13:39:13;3.00;;;2.70;;
12770;SDS011;6449;47.666;9.160;2022-09-01T13:44:08;2.85;;;2.65;;
12770;SDS011;6449;47.666;9.160;2022-09-01T13:49:03;2.80;;;2.28;;
12770;SDS011;6449;47.666;9.160;2022-09-01T13:54:17;2.90;;;2.70;;
12770;SDS011;6449;47.666;9.160;2022-09-01T13:59:10;2.80;;;2.60;;
12770;SDS011;6449;47.666;9.160;2022-09-01T14:04:05;2.60;;;2.40;;
12770;SDS011;6449;47.666;9.160;2022-09-01T14:08:59;2.75;;;2.55;;
12770;SDS011;6449;47.666;9.160;2022-09-01T14:13:52;3.17;;;2.85;;
12770;SDS011;6449;47.666;9.160;2022-09-01T14:18:46;2.85;;;2.60;;
12770;SDS011;6449;47.666;9.160;2022-09-01T14:23:41;2.88;;;2.60;;
12770;SDS011;6449;47.666;9.160;2022-09-01T14:28:36;2.80;;;2.60;;
12770;SDS011;6449;47.666;9.160;2022-09-01T14:33:30;2.63;;;2.42;;
12770;SDS011;6449;47.666;9.160;2022-09-01T14:38:24;2.50;;;2.30;;
12770;SDS011;6449;47.666;9.160;2022-09-01T14:43:19;2.53;;;2.30;;
12770;SDS011;6449;47.666;9.160;2022-09-01T14:48:12;3.05;;;2.75;;
12770;SDS011;6449;47.666;9.160;2022-09-01T14:53:08;3.05;;;2.40;;
12770;SDS011;6449;47.666;9.160;2022-09-01T14:58:03;2.97;;;2.78;;
12770;SDS011;6449;47.666;9.160;2022-09-01T15:02:58;2.35;;;2.15;;
12770;SDS011;6449;47.666;9.160;2022-09-01T15:07:52;2.53;;;2.30;;
12770;SDS011;6449;47.666;9.160;2022-09-01T15:12:45;2.80;;;2.60;;
12770;SDS011;6449;47.666;9.160;2022-09-01T15:17:40;2.22;;;2.10;;
12770;SDS011;6449;47.666;9.160;2022-09-01T15:22:38;2.65;;;2.45;;
12770;SDS011;6449;47.666;9.160;2022-09-01T15:27:32;2.75;;;2.42;;
12770;SDS011;6449;47.666;9.160;2022-09-01T15:32:31;2.60;;;2.40;;
12770;SDS011;6449;47.666;9.160;2022-09-01T15:37:24;3.22;;;3.03;;
12770;SDS011;6449;47.666;9.160;2022-09-01T15:42:19;3.08;;;2.80;;
12770;SDS011;6449;47.666;9.160;2022-09-01T15:47:12;3.15;;;2.95;;
12770;SDS011;6449;47.666;9.160;2022-09-01T15:52:05;2.85;;;2.65;;
12770;SDS011;6449;47.666;9.160;2022-09-01T15:56:59;3.58;;;3.10;;
12770;SDS011;6449;47.666;9.160;2022-09-01T16:01:54;3.00;;;2.80;;
12770;SDS011;6449;47.666;9.160;2022-09-01T16:06:48;2.80;;;2.60;;
12770;SDS011;6449;47.666;9.160;2022-09-01T16:11:43;3.45;;;3.15;;
12770;SDS011;6449;47.666;9.160;2022-09-01T16:16:41;3.30;;;3.00;;
12770;SDS011;6449;47.666;9.160;2022-09-01T16:21:45;3.42;;;3.13;;
12770;SDS011;6449;47.666;9.160;2022-09-01T16:26:46;3.10;;;2.90;;
12770;SDS011;6449;47.666;9.160;2022-09-01T16:31:40;3.28;;;2.60;;
12770;SDS011;6449;47.666;9.160;2022-09-01T16:36:35;6.93;;;5.03;;
12770;SDS011;6449;47.666;9.160;2022-09-01T16:41:46;3.33;;;3.08;;
12770;SDS011;6449;47.666;9.160;2022-09-01T16:46:53;3.28;;;2.97;;
12770;SDS011;6449;47.666;9.160;2022-09-01T16:52:00;3.00;;;2.78;;
12770;SDS011;6449;47.666;9.160;2022-09-01T16:57:03;2.72;;;2.50;;
12770;SDS011;6449;47.666;9.160;2022-09-01T17:02:19;2.50;;;2.30;;
12770;SDS011;6449;47.666;9.160;2022-09-01T17:07:30;2.75;;;2.55;;
12770;SDS011;6449;47.666;9.160;2022-09-01T17:12:37;3.25;;;2.95;;
12770;SDS011;6449;47.666;9.160;2022-09-01T17:17:40;2.85;;;2.65;;
12770;SDS011;6449;47.666;9.160;2022-09-01T17:22:48;2.92;;;2.72;;
12770;SDS011;6449;47.666;9.160;2022-09-01T17:27:47;3.85;;;3.13;;
12770;SDS011;6449;47.666;9.160;2022-09-01T17:32:51;3.28;;;3.00;;
12770;SDS011;6449;47.666;9.160;2022-09-01T17:38:14;3.67;;;3.38;;
12770;SDS011;6449;47.666;9.160;2022-09-01T17:43:19;3.08;;;2.88;;
12770;SDS011;6449;47.666;9.160;2022-09-01T17:48:21;3.83;;;3.42;;
12770;SDS011;6449;47.666;9.160;2022-09-01T17:53:34;3.05;;;2.80;;
12770;SDS011;6449;47.666;9.160;2022-09-01T17:58:42;3.28;;;2.97;;
12770;SDS011;6449;47.666;9.160;2022-09-01T18:03:50;3.28;;;3.05;;
12770;SDS011;6449;47.666;9.160;2022-09-01T18:09:21;3.53;;;3.22;;
12770;SDS011;6449;47.666;9.160;2022-09-01T18:14:19;3.20;;;3.00;;
12770;SDS011;6449;47.666;9.160;2022-09-01T18:19:20;3.55;;;3.25;;
12770;SDS011;6449;47.666;9.160;2022-09-01T18:24:19;3.65;;;3.35;;
12770;SDS011;6449;47.666;9.160;2022-09-01T18:29:20;3.60;;;3.08;;
12770;SDS011;6449;47.666;9.160;2022-09-01T18:34:22;3.88;;;3.58;;
12770;SDS011;6449;47.666;9.160;2022-09-01T18:39:38;3.20;;;3.00;;
12770;SDS011;6449;47.666;9.160;2022-09-01T18:44:47;3.67;;;3.38;;
12770;SDS011;6449;47.666;9.160;2022-09-01T18:49:56;3.90;;;3.60;;
12770;SDS011;6449;47.666;9.160;2022-09-01T18:55:02;4.93;;;3.50;;
12770;SDS011;6449;47.666;9.160;2022-09-01T19:00:13;4.03;;;3.63;;
12770;SDS011;6449;47.666;9.160;2022-09-01T19:05:14;3.90;;;3.40;;
12770;SDS011;6449;47.666;9.160;2022-09-01T19:10:25;4.55;;;3.92;;
12770;SDS011;6449;47.666;9.160;2022-09-01T19:15:27;6.28;;;3.92;;
12770;SDS011;6449;47.666;9.160;2022-09-01T19:20:31;3.58;;;3.28;;
12770;SDS011;6449;47.666;9.160;2022-09-01T19:25:35;4.10;;;3.80;;
12770;SDS011;6449;47.666;9.160;2022-09-01T19:30:33;3.70;;;3.40;;
12770;SDS011;6449;47.666;9.160;2022-09-01T19:35:34;3.67;;;3.38;;
12770;SDS011;6449;47.666;9.160;2022-09-01T19:40:31;4.80;;;3.42;;
12770;SDS011;6449;47.666;9.160;2022-09-01T19:45:34;3.80;;;3.50;;
12770;SDS011;6449;47.666;9.160;2022-09-01T19:50:47;3.45;;;3.15;;
12770;SDS011;6449;47.666;9.160;2022-09-01T19:55:49;6.40;;;3.35;;
12770;SDS011;6449;47.666;9.160;2022-09-01T20:00:52;3.78;;;3.22;;
12770;SDS011;6449;47.666;9.160;2022-09-01T20:05:48;4.63;;;3.78;;
12770;SDS011;6449;47.666;9.160;2022-09-01T20:10:53;5.82;;;5.25;;
12770;SDS011;6449;47.666;9.160;2022-09-01T20:15:55;5.43;;;4.60;;
12770;SDS011;6449;47.666;9.160;2022-09-01T20:21:01;4.72;;;3.60;;
12770;SDS011;6449;47.666;9.160;2022-09-01T20:26:16;3.90;;;3.50;;
12770;SDS011;6449;47.666;9.160;2022-09-01T20:31:17;3.65;;;3.35;;
12770;SDS011;6449;47.666;9.160;2022-09-01T20:36:19;4.18;;;3.78;;
12770;SDS011;6449;47.666;9.160;2022-09-01T20:41:24;4.63;;;3.45;;
12770;SDS011;6449;47.666;9.160;2022-09-01T20:46:30;3.20;;;3.00;;
12770;SDS011;6449;47.666;9.160;2022-09-01T20:51:30;3.53;;;3.03;;
12770;SDS011;6449;47.666;9.160;2022-09-01T20:56:37;2.88;;;2.67;;
12770;SDS011;6449;47.666;9.160;2022-09-01T21:01:41;3.70;;;3.40;;
12770;SDS011;6449;47.666;9.160;2022-09-01T21:06:45;3.72;;;3.17;;
12770;SDS011;6449;47.666;9.160;2022-09-01T21:11:50;3.63;;;3.33;;
12770;SDS011;6449;47.666;9.160;2022-09-01T21:16:56;3.22;;;3.00;;
12770;SDS011;6449;47.666;9.160;2022-09-01T21:22:02;3.28;;;2.92;;
12770;SDS011;6449;47.666;9.160;2022-09-01T21:27:01;3.55;;;3.25;;
12770;SDS011;6449;47.666;9.160;2022-09-01T21:31:59;3.88;;;2.80;;
12770;SDS011;6449;47.666;9.160;2022-09-01T21:36:53;3.50;;;3.20;;
12770;SDS011;6449;47.666;9.160;2022-09-01T21:41:46;3.30;;;3.00;;
12770;SDS011;6449;47.666;9.160;2022-09-01T21:46:41;3.75;;;3.00;;
12770;SDS011;6449;47.666;9.160;2022-09-01T21:51:35;3.08;;;2.85;;
12770;SDS011;6449;47.666;9.160;2022-09-01T21:56:28;3.35;;;2.83;;
12770;SDS011;6449;47.666;9.160;2022-09-01T22:01:21;3.00;;;2.80;;
12770;SDS011;6449;47.666;9.160;2022-09-01T22:06:22;3.75;;;3.13;;
12770;SDS011;6449;47.666;9.160;2022-09-01T22:11:16;6.82;;;3.17;;
12770;SDS011;6449;47.666;9.160;2022-09-01T22:16:14;4.95;;;4.18;;
12770;SDS011;6449;47.666;9.160;2022-09-01T22:21:09;3.63;;;3.33;;
12770;SDS011;6449;47.666;9.160;2022-09-01T22:26:05;4.05;;;3.03;;
12770;SDS011;6449;47.666;9.160;2022-09-01T22:31:05;3.47;;;3.17;;
12770;SDS011;6449;47.666;9.160;2022-09-01T22:35:58;3.55;;;3.17;;
12770;SDS011;6449;47.666;9.160;2022-09-01T22:40:52;5.47;;;3.17;;
12770;SDS011;6449;47.666;9.160;2022-09-01T22:45:51;3.53;;;3.22;;
12770;SDS011;6449;47.666;9.160;2022-09-01T22:50:47;4.88;;;3.30;;
12770;SDS011;6449;47.666;9.160;2022-09-01T22:55:44;3.38;;;3.05;;
12770;SDS011;6449;47.666;9.160;2022-09-01T23:00:42;3.50;;;3.20;;
12770;SDS011;6449;47.666;9.160;2022-09-01T23:05:40;3.33;;;3.03;;
12770;SDS011;6449;47.666;9.160;2022-09-01T23:10:35;3.70;;;3.20;;
12770;SDS011;6449;47.666;9.160;2022-09-01T23:15:28;3.30;;;3.00;;
12770;SDS011;6449;47.666;9.160;2022-09-01T23:20:22;3.40;;;2.90;;
12770;SDS011;6449;47.666;9.160;2022-09-01T23:25:16;3.88;;;3.15;;
12770;SDS011;6449;47.666;9.160;2022-09-01T23:30:12;3.45;;;3.15;;
12770;SDS011;6449;47.666;9.160;2022-09-01T23:35:06;3.75;;;3.38;;
12770;SDS011;6449;47.666;9.160;2022-09-01T23:40:01;4.47;;;3.63;;
12770;SDS011;6449;47.666;9.160;2022-09-01T23:44:57;4.85;;;4.30;;
12770;SDS011;6449;47.666;9.160;2022-09-01T23:49:51;5.00;;;3.92;;
12770;SDS011;6449;47.666;9.160;2022-09-01T23:54:46;3.70;;;3.40;;
12770;SDS011;6449;47.666;9.160;2022-09-01T23:59:40;5.13;;;3.65;;
